ADDS METAR Data INFO
IDs: Format: Raw Decoded Include TAF

Data at: 1753 UTC 15 Dec 2017

KJQF 151655Z 00000KT 10SM CLR 06/M02 A2998
KJQF 151550Z 00000KT 10SM CLR 05/M02 A3001
KJQF 151450Z 00000KT 10SM CLR 03/M03 A3001
KJQF 151350Z 00000KT 10SM CLR 02/M04 A3001
KJQF 151250Z 00000KT 10SM CLR 01/M04 A3001
KJQF 151235Z AUTO 00000KT 10SM CLR 00/M04 A3001 RMK AO2
KJQF 151230Z AUTO 00000KT 10SM CLR 00/M04 A3001 RMK AO2
KJQF 151210Z AUTO 36005KT 10SM CLR 01/M04 A3001 RMK AO2
KJQF 151150Z AUTO 36004KT 10SM CLR 01/M04 A3001 RMK AO2
KJQF 151130Z AUTO 35006KT 10SM CLR 01/M04 A3001 RMK AO2
KJQF 151110Z AUTO 36005KT 10SM CLR 01/M04 A3000 RMK AO2
KJQF 151050Z AUTO 36004KT 10SM CLR 02/M04 A3000 RMK AO2
KJQF 151030Z AUTO 34006KT 10SM CLR 02/M04 A3000 RMK AO2
KJQF 151010Z AUTO 36005KT 10SM CLR 02/M04 A2999 RMK AO2
KJQF 150950Z AUTO 35006KT 10SM CLR 02/M04 A2999 RMK AO2
KJQF 150930Z AUTO 36007KT 10SM CLR 02/M03 A3000 RMK AO2
KJQF 150910Z AUTO 34005KT 10SM CLR 02/M03 A3001 RMK AO2
KJQF 150850Z AUTO 01003KT 10SM CLR 02/M03 A3001 RMK AO2
KJQF 150830Z AUTO 00000KT 10SM CLR 02/M03 A3000 RMK AO2
KJQF 150810Z AUTO 36004KT 10SM CLR 02/M03 A3000 RMK AO2
KJQF 150750Z AUTO 36004KT 10SM CLR 03/M03 A3000 RMK AO2
KJQF 150730Z AUTO 00000KT 10SM CLR 04/M04 A3000 RMK AO2
KJQF 150710Z AUTO 04003KT 10SM CLR 04/M04 A3000 RMK AO2
KJQF 150650Z AUTO 05004KT 10SM CLR 04/M04 A2999 RMK AO2
KJQF 150630Z AUTO 06005KT 10SM CLR 04/M04 A2998 RMK AO2
KJQF 150610Z AUTO 05004KT 10SM CLR 04/M03 A2999 RMK AO2
KJQF 150550Z AUTO 05003KT 10SM CLR 04/M03 A3000 RMK AO2
KJQF 150530Z AUTO 05004KT 10SM CLR 05/M03 A3001 RMK AO2
KJQF 150510Z AUTO 05004KT 10SM CLR 05/M03 A3001 RMK AO2
KJQF 150450Z AUTO 03003KT 10SM CLR 05/M03 A3001 RMK AO2
KJQF 150430Z AUTO 00000KT 10SM CLR 05/M03 A3001 RMK AO2
KJQF 150350Z 06004KT 10SM CLR 06/M03 A2999
KJQF 150250Z 00000KT 10SM CLR 07/M03 A2998
KJQF 150150Z 00000KT 10SM CLR 04/M03 A2997
KJQF 150050Z 06005KT 10SM CLR 06/M02 A2996
KJQF 142350Z 00000KT 10SM CLR 07/M03 A2994
KJQF 142250Z 00000KT 10SM CLR 08/M03 A2993
KJQF 142150Z 00000KT 10SM CLR 12/M02 A2991
KJQF 142050Z 00000KT 10SM CLR 14/M04 A2989
KJQF 141950Z 00000KT 10SM CLR 14/M04 A2986
KJQF 141850Z 00000KT 10SM CLR 14/M05 A2987
KJQF 141755Z 29003KT 10SM CLR 13/M04 A2987
KJQF 141655Z 29008KT 10SM CLR 12/M04 A2989
KJQF 141550Z 27008KT 10SM CLR 11/M04 A2990
KJQF 141450Z 27008KT 10SM CLR 09/M04 A2987
KJQF 141350Z 24005KT 10SM CLR 06/M05 A2984
KJQF 141255Z 24005KT 10SM CLR 03/M06 A2982
KJQF 141215Z AUTO 21003KT 10SM CLR 02/M06 A2980 RMK AO2
KJQF 141210Z AUTO 20003KT 10SM CLR 01/M06 A2979 RMK AO2
KJQF 141153Z 22005KT 10SM CLR 02/M07 A2979
KJQF 141150Z AUTO 22005KT 10SM CLR 02/M06 A2978 RMK AO2
KJQF 141130Z AUTO 21005KT 10SM CLR 02/M06 A2977 RMK AO2
KJQF 141110Z AUTO 22003KT 10SM CLR 02/M06 A2976 RMK AO2
KJQF 141050Z AUTO 22003KT 10SM CLR 02/M07 A2976 RMK AO2
KJQF 141030Z AUTO 21004KT 10SM CLR 03/M07 A2975 RMK AO2
KJQF 141010Z AUTO 22004KT 10SM CLR 02/M07 A2974 RMK AO2
KJQF 140950Z AUTO 21004KT 10SM CLR 02/M07 A2973 RMK AO2
KJQF 140930Z AUTO 20004KT 10SM CLR 02/M07 A2973 RMK AO2
KJQF 140910Z AUTO 21004KT 10SM CLR 02/M08 A2973 RMK AO2
KJQF 140850Z AUTO 21004KT 10SM CLR 02/M08 A2973 RMK AO2
KJQF 140830Z AUTO 21005KT 10SM CLR 02/M08 A2973 RMK AO2
KJQF 140810Z AUTO 22006KT 10SM CLR 03/M08 A2972 RMK AO2
KJQF 140750Z AUTO 22005KT 10SM CLR 03/M08 A2972 RMK AO2
KJQF 140730Z AUTO 22005KT 10SM CLR 03/M09 A2972 RMK AO2
KJQF 140710Z AUTO 22007KT 10SM CLR 03/M09 A2972 RMK AO2
KJQF 140650Z AUTO 21006KT 10SM CLR 03/M09 A2973 RMK AO2
KJQF 140630Z AUTO 21004KT 10SM CLR 03/M10 A2973 RMK AO2
KJQF 140610Z AUTO 22006KT 10SM CLR 04/M10 A2973 RMK AO2